sensor_id;sensor_type;location;lat;lon;timestamp;P1;durP1;ratioP1;P2;durP2;ratioP2
34098;SDS011;20374;49.474;10.944;2022-10-31T00:00:49;9.73;;;6.80;;
34098;SDS011;20374;49.474;10.944;2022-10-31T00:03:15;15.90;;;8.65;;
34098;SDS011;20374;49.474;10.944;2022-10-31T00:05:46;13.85;;;8.80;;
34098;SDS011;20374;49.474;10.944;2022-10-31T00:08:13;30.45;;;10.95;;
34098;SDS011;20374;49.474;10.944;2022-10-31T00:10:40;20.45;;;9.40;;
34098;SDS011;20374;49.474;10.944;2022-10-31T00:13:07;19.13;;;9.57;;
34098;SDS011;20374;49.474;10.944;2022-10-31T00:15:34;22.92;;;9.90;;
34098;SDS011;20374;49.474;10.944;2022-10-31T00:18:01;10.80;;;9.68;;
34098;SDS011;20374;49.474;10.944;2022-10-31T00:20:27;9.82;;;7.28;;
34098;SDS011;20374;49.474;10.944;2022-10-31T00:22:53;19.58;;;9.35;;
34098;SDS011;20374;49.474;10.944;2022-10-31T00:25:19;10.27;;;7.63;;
34098;SDS011;20374;49.474;10.944;2022-10-31T00:27:45;19.60;;;7.25;;
34098;SDS011;20374;49.474;10.944;2022-10-31T00:30:11;7.70;;;6.43;;
34098;SDS011;20374;49.474;10.944;2022-10-31T00:32:37;6.22;;;5.65;;
34098;SDS011;20374;49.474;10.944;2022-10-31T00:35:03;16.73;;;8.38;;
34098;SDS011;20374;49.474;10.944;2022-10-31T00:37:29;26.05;;;10.25;;
34098;SDS011;20374;49.474;10.944;2022-10-31T00:39:55;9.00;;;7.57;;
34098;SDS011;20374;49.474;10.944;2022-10-31T00:42:21;8.18;;;6.32;;
34098;SDS011;20374;49.474;10.944;2022-10-31T00:44:47;7.97;;;6.10;;
34098;SDS011;20374;49.474;10.944;2022-10-31T00:47:13;7.17;;;5.70;;
34098;SDS011;20374;49.474;10.944;2022-10-31T00:49:39;6.35;;;5.75;;
34098;SDS011;20374;49.474;10.944;2022-10-31T00:52:06;6.78;;;6.00;;
34098;SDS011;20374;49.474;10.944;2022-10-31T00:54:32;7.30;;;6.05;;
34098;SDS011;20374;49.474;10.944;2022-10-31T00:56:58;6.30;;;5.63;;
34098;SDS011;20374;49.474;10.944;2022-10-31T00:59:24;6.15;;;5.55;;
34098;SDS011;20374;49.474;10.944;2022-10-31T01:01:50;5.97;;;5.15;;
34098;SDS011;20374;49.474;10.944;2022-10-31T01:04:15;6.55;;;5.22;;
34098;SDS011;20374;49.474;10.944;2022-10-31T01:06:41;8.00;;;5.80;;
34098;SDS011;20374;49.474;10.944;2022-10-31T01:09:07;7.20;;;5.95;;
34098;SDS011;20374;49.474;10.944;2022-10-31T01:11:33;6.97;;;6.28;;
34098;SDS011;20374;49.474;10.944;2022-10-31T01:14:02;5.87;;;4.97;;
34098;SDS011;20374;49.474;10.944;2022-10-31T01:16:30;6.32;;;5.40;;
34098;SDS011;20374;49.474;10.944;2022-10-31T01:18:56;8.85;;;6.13;;
34098;SDS011;20374;49.474;10.944;2022-10-31T01:21:25;6.55;;;5.95;;
34098;SDS011;20374;49.474;10.944;2022-10-31T01:23:56;6.88;;;6.28;;
34098;SDS011;20374;49.474;10.944;2022-10-31T01:26:23;6.17;;;5.57;;
34098;SDS011;20374;49.474;10.944;2022-10-31T01:31:24;6.05;;;5.47;;
34098;SDS011;20374;49.474;10.944;2022-10-31T01:33:51;6.15;;;5.55;;
34098;SDS011;20374;49.474;10.944;2022-10-31T01:36:18;6.15;;;5.55;;
34098;SDS011;20374;49.474;10.944;2022-10-31T01:38:49;7.32;;;5.25;;
34098;SDS011;20374;49.474;10.944;2022-10-31T01:41:17;6.78;;;5.15;;
34098;SDS011;20374;49.474;10.944;2022-10-31T01:43:54;6.93;;;6.10;;
34098;SDS011;20374;49.474;10.944;2022-10-31T01:46:22;9.00;;;5.85;;
34098;SDS011;20374;49.474;10.944;2022-10-31T01:48:52;7.73;;;6.33;;
34098;SDS011;20374;49.474;10.944;2022-10-31T01:51:20;8.20;;;5.70;;
34098;SDS011;20374;49.474;10.944;2022-10-31T01:53:49;6.53;;;5.47;;
34098;SDS011;20374;49.474;10.944;2022-10-31T01:56:19;6.63;;;5.93;;
34098;SDS011;20374;49.474;10.944;2022-10-31T01:58:45;7.68;;;5.28;;
34098;SDS011;20374;49.474;10.944;2022-10-31T02:01:14;6.23;;;5.63;;
34098;SDS011;20374;49.474;10.944;2022-10-31T02:03:42;5.10;;;4.60;;
34098;SDS011;20374;49.474;10.944;2022-10-31T02:06:15;5.78;;;5.18;;
34098;SDS011;20374;49.474;10.944;2022-10-31T02:08:58;5.85;;;5.35;;
34098;SDS011;20374;49.474;10.944;2022-10-31T02:11:26;4.95;;;4.45;;
34098;SDS011;20374;49.474;10.944;2022-10-31T02:13:53;5.13;;;4.57;;
34098;SDS011;20374;49.474;10.944;2022-10-31T02:16:21;8.35;;;4.80;;
34098;SDS011;20374;49.474;10.944;2022-10-31T02:18:47;5.63;;;5.05;;
34098;SDS011;20374;49.474;10.944;2022-10-31T02:21:23;5.85;;;5.25;;
34098;SDS011;20374;49.474;10.944;2022-10-31T02:24:08;6.03;;;5.23;;
34098;SDS011;20374;49.474;10.944;2022-10-31T02:32:09;15.07;;;7.20;;
34098;SDS011;20374;49.474;10.944;2022-10-31T02:35:07;9.63;;;6.55;;
34098;SDS011;20374;49.474;10.944;2022-10-31T02:37:48;8.83;;;5.57;;
34098;SDS011;20374;49.474;10.944;2022-10-31T02:46:00;7.25;;;6.20;;
34098;SDS011;20374;49.474;10.944;2022-10-31T02:49:06;9.68;;;5.40;;
34098;SDS011;20374;49.474;10.944;2022-10-31T02:51:38;6.87;;;5.33;;
34098;SDS011;20374;49.474;10.944;2022-10-31T02:54:04;5.88;;;5.28;;
34098;SDS011;20374;49.474;10.944;2022-10-31T02:56:40;8.90;;;6.80;;
34098;SDS011;20374;49.474;10.944;2022-10-31T02:59:06;6.40;;;5.80;;
34098;SDS011;20374;49.474;10.944;2022-10-31T03:07:23;11.15;;;5.38;;
34098;SDS011;20374;49.474;10.944;2022-10-31T03:10:03;11.32;;;5.82;;
34098;SDS011;20374;49.474;10.944;2022-10-31T03:12:46;13.77;;;6.53;;
34098;SDS011;20374;49.474;10.944;2022-10-31T03:20:24;13.07;;;6.55;;
34098;SDS011;20374;49.474;10.944;2022-10-31T03:22:55;7.85;;;5.85;;
34098;SDS011;20374;49.474;10.944;2022-10-31T03:25:22;12.07;;;5.38;;
34098;SDS011;20374;49.474;10.944;2022-10-31T03:27:51;6.35;;;5.85;;
34098;SDS011;20374;49.474;10.944;2022-10-31T03:30:18;6.73;;;5.70;;
34098;SDS011;20374;49.474;10.944;2022-10-31T03:32:56;8.15;;;6.25;;
34098;SDS011;20374;49.474;10.944;2022-10-31T03:35:27;7.00;;;6.32;;
34098;SDS011;20374;49.474;10.944;2022-10-31T03:37:55;8.30;;;5.75;;
34098;SDS011;20374;49.474;10.944;2022-10-31T03:40:24;6.78;;;6.07;;
34098;SDS011;20374;49.474;10.944;2022-10-31T03:42:54;8.40;;;5.47;;
34098;SDS011;20374;49.474;10.944;2022-10-31T03:45:26;9.65;;;5.82;;
34098;SDS011;20374;49.474;10.944;2022-10-31T03:47:55;21.90;;;6.50;;
34098;SDS011;20374;49.474;10.944;2022-10-31T03:50:24;9.02;;;6.45;;
34098;SDS011;20374;49.474;10.944;2022-10-31T03:53:04;10.73;;;8.07;;
34098;SDS011;20374;49.474;10.944;2022-10-31T03:55:55;15.90;;;7.23;;
34098;SDS011;20374;49.474;10.944;2022-10-31T03:58:25;43.70;;;9.93;;
34098;SDS011;20374;49.474;10.944;2022-10-31T04:00:57;25.23;;;7.07;;
34098;SDS011;20374;49.474;10.944;2022-10-31T04:03:29;15.23;;;7.38;;
34098;SDS011;20374;49.474;10.944;2022-10-31T04:05:59;15.15;;;8.00;;
34098;SDS011;20374;49.474;10.944;2022-10-31T04:08:31;30.27;;;9.00;;
34098;SDS011;20374;49.474;10.944;2022-10-31T04:11:03;16.42;;;7.28;;
34098;SDS011;20374;49.474;10.944;2022-10-31T04:13:37;31.40;;;10.15;;
34098;SDS011;20374;49.474;10.944;2022-10-31T04:16:12;21.85;;;9.80;;
34098;SDS011;20374;49.474;10.944;2022-10-31T04:18:40;9.40;;;6.63;;
34098;SDS011;20374;49.474;10.944;2022-10-31T04:21:07;15.43;;;8.97;;
34098;SDS011;20374;49.474;10.944;2022-10-31T04:23:33;16.38;;;7.60;;
34098;SDS011;20374;49.474;10.944;2022-10-31T04:26:07;9.70;;;6.05;;
34098;SDS011;20374;49.474;10.944;2022-10-31T04:28:36;16.92;;;8.23;;
34098;SDS011;20374;49.474;10.944;2022-10-31T04:31:03;14.07;;;10.13;;
34098;SDS011;20374;49.474;10.944;2022-10-31T04:33:33;25.98;;;8.85;;
34098;SDS011;20374;49.474;10.944;2022-10-31T04:36:01;24.40;;;8.18;;
34098;SDS011;20374;49.474;10.944;2022-10-31T04:38:27;18.45;;;6.15;;
34098;SDS011;20374;49.474;10.944;2022-10-31T04:40:53;9.75;;;8.07;;
34098;SDS011;20374;49.474;10.944;2022-10-31T04:43:43;16.77;;;8.30;;
34098;SDS011;20374;49.474;10.944;2022-10-31T04:46:09;21.00;;;9.32;;
34098;SDS011;20374;49.474;10.944;2022-10-31T04:48:36;11.57;;;9.00;;
34098;SDS011;20374;49.474;10.944;2022-10-31T04:51:04;12.43;;;6.72;;
34098;SDS011;20374;49.474;10.944;2022-10-31T04:53:31;13.80;;;8.03;;
34098;SDS011;20374;49.474;10.944;2022-10-31T04:56:29;15.02;;;6.22;;
34098;SDS011;20374;49.474;10.944;2022-10-31T04:58:58;17.92;;;5.90;;
34098;SDS011;20374;49.474;10.944;2022-10-31T05:01:27;6.68;;;6.07;;
34098;SDS011;20374;49.474;10.944;2022-10-31T05:03:54;7.78;;;4.60;;
34098;SDS011;20374;49.474;10.944;2022-10-31T05:06:19;8.77;;;6.27;;
34098;SDS011;20374;49.474;10.944;2022-10-31T05:08:45;6.10;;;5.50;;
34098;SDS011;20374;49.474;10.944;2022-10-31T05:11:12;8.07;;;5.82;;
34098;SDS011;20374;49.474;10.944;2022-10-31T05:13:38;6.47;;;5.68;;
34098;SDS011;20374;49.474;10.944;2022-10-31T05:16:13;7.23;;;5.57;;
34098;SDS011;20374;49.474;10.944;2022-10-31T05:18:48;15.38;;;5.82;;
34098;SDS011;20374;49.474;10.944;2022-10-31T05:21:13;8.25;;;6.32;;
34098;SDS011;20374;49.474;10.944;2022-10-31T05:23:47;11.75;;;5.63;;
34098;SDS011;20374;49.474;10.944;2022-10-31T05:26:13;7.03;;;5.83;;
34098;SDS011;20374;49.474;10.944;2022-10-31T05:28:39;7.63;;;4.65;;
34098;SDS011;20374;49.474;10.944;2022-10-31T05:31:05;21.48;;;6.68;;
34098;SDS011;20374;49.474;10.944;2022-10-31T05:33:31;13.23;;;7.28;;
34098;SDS011;20374;49.474;10.944;2022-10-31T05:36:16;13.93;;;7.20;;
34098;SDS011;20374;49.474;10.944;2022-10-31T05:38:59;17.50;;;7.13;;
34098;SDS011;20374;49.474;10.944;2022-10-31T05:41:33;13.20;;;6.10;;
34098;SDS011;20374;49.474;10.944;2022-10-31T05:44:07;7.75;;;6.47;;
34098;SDS011;20374;49.474;10.944;2022-10-31T05:46:47;12.52;;;7.38;;
34098;SDS011;20374;49.474;10.944;2022-10-31T05:49:48;9.07;;;5.97;;
34098;SDS011;20374;49.474;10.944;2022-10-31T05:52:40;5.65;;;5.10;;
34098;SDS011;20374;49.474;10.944;2022-10-31T05:55:17;9.57;;;5.75;;
34098;SDS011;20374;49.474;10.944;2022-10-31T05:57:58;5.75;;;5.25;;
34098;SDS011;20374;49.474;10.944;2022-10-31T06:00:24;6.95;;;5.90;;
34098;SDS011;20374;49.474;10.944;2022-10-31T06:02:57;7.45;;;5.60;;
34098;SDS011;20374;49.474;10.944;2022-10-31T06:05:47;7.20;;;4.90;;
34098;SDS011;20374;49.474;10.944;2022-10-31T06:08:13;8.65;;;5.68;;
34098;SDS011;20374;49.474;10.944;2022-10-31T06:10:40;6.70;;;6.00;;
34098;SDS011;20374;49.474;10.944;2022-10-31T06:13:06;7.47;;;5.57;;
34098;SDS011;20374;49.474;10.944;2022-10-31T06:15:37;11.23;;;6.32;;
34098;SDS011;20374;49.474;10.944;2022-10-31T06:18:06;7.72;;;5.60;;
34098;SDS011;20374;49.474;10.944;2022-10-31T06:20:44;8.75;;;5.88;;
34098;SDS011;20374;49.474;10.944;2022-10-31T06:23:10;7.72;;;6.35;;
34098;SDS011;20374;49.474;10.944;2022-10-31T06:25:37;5.87;;;5.23;;
34098;SDS011;20374;49.474;10.944;2022-10-31T06:28:04;7.13;;;5.68;;
34098;SDS011;20374;49.474;10.944;2022-10-31T06:30:42;10.15;;;6.38;;
34098;SDS011;20374;49.474;10.944;2022-10-31T06:33:09;12.55;;;7.30;;
34098;SDS011;20374;49.474;10.944;2022-10-31T06:35:38;27.13;;;8.27;;
34098;SDS011;20374;49.474;10.944;2022-10-31T06:38:09;21.27;;;7.23;;
34098;SDS011;20374;49.474;10.944;2022-10-31T06:40:38;14.02;;;7.07;;
34098;SDS011;20374;49.474;10.944;2022-10-31T06:43:25;9.85;;;7.80;;
34098;SDS011;20374;49.474;10.944;2022-10-31T06:46:08;15.00;;;6.03;;
34098;SDS011;20374;49.474;10.944;2022-10-31T06:48:44;13.07;;;6.28;;
34098;SDS011;20374;49.474;10.944;2022-10-31T06:51:33;6.27;;;5.43;;
34098;SDS011;20374;49.474;10.944;2022-10-31T06:53:59;8.20;;;5.80;;
34098;SDS011;20374;49.474;10.944;2022-10-31T06:56:25;6.72;;;5.97;;
34098;SDS011;20374;49.474;10.944;2022-10-31T06:58:54;6.80;;;5.55;;
34098;SDS011;20374;49.474;10.944;2022-10-31T07:01:38;6.10;;;5.60;;
34098;SDS011;20374;49.474;10.944;2022-10-31T07:04:04;8.40;;;5.20;;
34098;SDS011;20374;49.474;10.944;2022-10-31T07:06:33;6.45;;;5.45;;
34098;SDS011;20374;49.474;10.944;2022-10-31T07:08:59;5.90;;;5.35;;
34098;SDS011;20374;49.474;10.944;2022-10-31T07:11:25;6.93;;;6.07;;
34098;SDS011;20374;49.474;10.944;2022-10-31T07:13:54;6.60;;;5.70;;
34098;SDS011;20374;49.474;10.944;2022-10-31T07:16:19;6.63;;;6.03;;
34098;SDS011;20374;49.474;10.944;2022-10-31T07:18:45;6.60;;;5.97;;
34098;SDS011;20374;49.474;10.944;2022-10-31T07:21:11;6.93;;;5.97;;
34098;SDS011;20374;49.474;10.944;2022-10-31T07:23:38;6.60;;;6.00;;
34098;SDS011;20374;49.474;10.944;2022-10-31T07:26:23;6.75;;;5.90;;
34098;SDS011;20374;49.474;10.944;2022-10-31T07:28:49;5.85;;;5.35;;
34098;SDS011;20374;49.474;10.944;2022-10-31T07:31:19;6.30;;;5.70;;
34098;SDS011;20374;49.474;10.944;2022-10-31T07:33:45;5.83;;;5.33;;
34098;SDS011;20374;49.474;10.944;2022-10-31T07:36:26;6.28;;;5.75;;
34098;SDS011;20374;49.474;10.944;2022-10-31T07:38:56;6.38;;;5.78;;
34098;SDS011;20374;49.474;10.944;2022-10-31T07:41:23;13.88;;;12.93;;
34098;SDS011;20374;49.474;10.944;2022-10-31T07:43:50;6.68;;;5.38;;
34098;SDS011;20374;49.474;10.944;2022-10-31T07:46:15;6.13;;;5.53;;
34098;SDS011;20374;49.474;10.944;2022-10-31T07:48:47;6.60;;;5.97;;
34098;SDS011;20374;49.474;10.944;2022-10-31T07:51:51;6.20;;;5.70;;
34098;SDS011;20374;49.474;10.944;2022-10-31T07:54:26;6.63;;;6.05;;
34098;SDS011;20374;49.474;10.944;2022-10-31T07:56:53;5.60;;;5.10;;
34098;SDS011;20374;49.474;10.944;2022-10-31T07:59:18;6.18;;;5.57;;
34098;SDS011;20374;49.474;10.944;2022-10-31T08:01:44;8.32;;;5.55;;
34098;SDS011;20374;49.474;10.944;2022-10-31T08:04:34;7.22;;;6.20;;
34098;SDS011;20374;49.474;10.944;2022-10-31T08:07:18;6.30;;;5.70;;
34098;SDS011;20374;49.474;10.944;2022-10-31T08:09:51;5.68;;;5.18;;
34098;SDS011;20374;49.474;10.944;2022-10-31T08:12:21;6.03;;;5.53;;
34098;SDS011;20374;49.474;10.944;2022-10-31T08:14:47;5.70;;;5.20;;
34098;SDS011;20374;49.474;10.944;2022-10-31T08:17:16;5.22;;;4.72;;
34098;SDS011;20374;49.474;10.944;2022-10-31T08:19:51;6.33;;;5.77;;
34098;SDS011;20374;49.474;10.944;2022-10-31T08:22:21;5.60;;;5.10;;
34098;SDS011;20374;49.474;10.944;2022-10-31T08:24:48;6.70;;;6.07;;
34098;SDS011;20374;49.474;10.944;2022-10-31T08:27:14;6.18;;;5.55;;
34098;SDS011;20374;49.474;10.944;2022-10-31T08:29:40;5.57;;;5.17;;
34098;SDS011;20374;49.474;10.944;2022-10-31T08:32:06;5.75;;;5.25;;
34098;SDS011;20374;49.474;10.944;2022-10-31T08:34:52;6.68;;;6.07;;
34098;SDS011;20374;49.474;10.944;2022-10-31T08:37:38;6.97;;;6.28;;
34098;SDS011;20374;49.474;10.944;2022-10-31T08:40:05;6.60;;;6.00;;
34098;SDS011;20374;49.474;10.944;2022-10-31T08:42:33;6.57;;;5.70;;
34098;SDS011;20374;49.474;10.944;2022-10-31T08:45:00;8.85;;;6.15;;
34098;SDS011;20374;49.474;10.944;2022-10-31T08:47:27;7.13;;;6.53;;
34098;SDS011;20374;49.474;10.944;2022-10-31T08:49:54;7.05;;;6.38;;
34098;SDS011;20374;49.474;10.944;2022-10-31T08:52:24;7.25;;;6.70;;
34098;SDS011;20374;49.474;10.944;2022-10-31T08:54:56;7.67;;;6.47;;
34098;SDS011;20374;49.474;10.944;2022-10-31T08:58:00;6.57;;;5.93;;
34098;SDS011;20374;49.474;10.944;2022-10-31T09:00:35;7.88;;;6.38;;
34098;SDS011;20374;49.474;10.944;2022-10-31T09:03:15;6.80;;;6.13;;
34098;SDS011;20374;49.474;10.944;2022-10-31T09:05:42;9.00;;;7.00;;
34098;SDS011;20374;49.474;10.944;2022-10-31T09:08:10;7.23;;;6.53;;
34098;SDS011;20374;49.474;10.944;2022-10-31T09:10:37;7.03;;;6.40;;
34098;SDS011;20374;49.474;10.944;2022-10-31T09:13:09;7.05;;;6.45;;
34098;SDS011;20374;49.474;10.944;2022-10-31T09:15:59;7.55;;;6.85;;
34098;SDS011;20374;49.474;10.944;2022-10-31T09:18:25;6.88;;;6.18;;
34098;SDS011;20374;49.474;10.944;2022-10-31T09:20:57;7.07;;;5.63;;
34098;SDS011;20374;49.474;10.944;2022-10-31T09:23:26;7.22;;;6.10;;
34098;SDS011;20374;49.474;10.944;2022-10-31T09:25:52;6.78;;;5.82;;
34098;SDS011;20374;49.474;10.944;2022-10-31T09:28:45;8.35;;;6.70;;
34098;SDS011;20374;49.474;10.944;2022-10-31T09:31:13;7.20;;;6.60;;
34098;SDS011;20374;49.474;10.944;2022-10-31T09:34:18;6.45;;;5.85;;
34098;SDS011;20374;49.474;10.944;2022-10-31T09:36:48;6.97;;;6.13;;
34098;SDS011;20374;49.474;10.944;2022-10-31T09:39:19;6.97;;;6.28;;
34098;SDS011;20374;49.474;10.944;2022-10-31T09:47:45;7.20;;;6.50;;
34098;SDS011;20374;49.474;10.944;2022-10-31T09:50:31;8.18;;;7.28;;
34098;SDS011;20374;49.474;10.944;2022-10-31T09:53:19;7.68;;;6.97;;
34098;SDS011;20374;49.474;10.944;2022-10-31T09:55:56;7.57;;;6.43;;
34098;SDS011;20374;49.474;10.944;2022-10-31T09:58:27;7.17;;;6.57;;
34098;SDS011;20374;49.474;10.944;2022-10-31T10:00:57;7.35;;;6.75;;
34098;SDS011;20374;49.474;10.944;2022-10-31T10:03:35;7.47;;;6.70;;
34098;SDS011;20374;49.474;10.944;2022-10-31T10:06:32;7.70;;;7.00;;
34098;SDS011;20374;49.474;10.944;2022-10-31T10:09:35;7.32;;;6.35;;
34098;SDS011;20374;49.474;10.944;2022-10-31T10:12:48;7.97;;;7.23;;
34098;SDS011;20374;49.474;10.944;2022-10-31T10:18:01;7.82;;;7.03;;
34098;SDS011;20374;49.474;10.944;2022-10-31T10:23:44;7.90;;;7.10;;
34098;SDS011;20374;49.474;10.944;2022-10-31T10:26:15;7.70;;;7.00;;
34098;SDS011;20374;49.474;10.944;2022-10-31T10:28:49;8.43;;;7.50;;
34098;SDS011;20374;49.474;10.944;2022-10-31T10:31:22;8.68;;;7.75;;
34098;SDS011;20374;49.474;10.944;2022-10-31T10:36:25;7.50;;;6.80;;
34098;SDS011;20374;49.474;10.944;2022-10-31T10:39:00;7.80;;;7.20;;
34098;SDS011;20374;49.474;10.944;2022-10-31T10:41:41;8.52;;;7.82;;
34098;SDS011;20374;49.474;10.944;2022-10-31T10:44:11;8.48;;;7.75;;
34098;SDS011;20374;49.474;10.944;2022-10-31T10:46:41;10.10;;;8.07;;
34098;SDS011;20374;49.474;10.944;2022-10-31T10:49:34;9.03;;;8.23;;
34098;SDS011;20374;49.474;10.944;2022-10-31T10:52:10;9.02;;;7.13;;
34098;SDS011;20374;49.474;10.944;2022-10-31T11:00:29;9.40;;;7.25;;
34098;SDS011;20374;49.474;10.944;2022-10-31T11:03:00;9.47;;;7.40;;
34098;SDS011;20374;49.474;10.944;2022-10-31T11:05:35;7.47;;;6.68;;
34098;SDS011;20374;49.474;10.944;2022-10-31T11:08:04;9.18;;;7.57;;
34098;SDS011;20374;49.474;10.944;2022-10-31T11:10:31;8.30;;;7.47;;
34098;SDS011;20374;49.474;10.944;2022-10-31T11:15:51;8.83;;;7.93;;
34098;SDS011;20374;49.474;10.944;2022-10-31T11:18:22;7.82;;;7.13;;
34098;SDS011;20374;49.474;10.944;2022-10-31T11:20:51;9.70;;;7.75;;
34098;SDS011;20374;49.474;10.944;2022-10-31T11:23:20;9.10;;;8.18;;
34098;SDS011;20374;49.474;10.944;2022-10-31T11:25:48;8.35;;;7.32;;
34098;SDS011;20374;49.474;10.944;2022-10-31T11:28:20;10.97;;;8.40;;
34098;SDS011;20374;49.474;10.944;2022-10-31T11:30:47;8.20;;;7.47;;
34098;SDS011;20374;49.474;10.944;2022-10-31T11:33:21;8.40;;;7.43;;
34098;SDS011;20374;49.474;10.944;2022-10-31T11:35:51;11.23;;;8.25;;
34098;SDS011;20374;49.474;10.944;2022-10-31T11:38:20;8.57;;;7.45;;
34098;SDS011;20374;49.474;10.944;2022-10-31T11:40:55;9.80;;;7.40;;
34098;SDS011;20374;49.474;10.944;2022-10-31T11:43:31;9.38;;;8.38;;
34098;SDS011;20374;49.474;10.944;2022-10-31T11:45:57;9.10;;;8.20;;
34098;SDS011;20374;49.474;10.944;2022-10-31T11:48:23;8.55;;;7.72;;
34098;SDS011;20374;49.474;10.944;2022-10-31T11:50:52;9.50;;;8.30;;
34098;SDS011;20374;49.474;10.944;2022-10-31T11:53:26;9.98;;;7.32;;
34098;SDS011;20374;49.474;10.944;2022-10-31T11:56:04;8.75;;;7.90;;
34098;SDS011;20374;49.474;10.944;2022-10-31T11:58:40;8.70;;;7.85;;
34098;SDS011;20374;49.474;10.944;2022-10-31T12:01:20;9.23;;;8.27;;
34098;SDS011;20374;49.474;10.944;2022-10-31T12:06:41;8.57;;;7.53;;
34098;SDS011;20374;49.474;10.944;2022-10-31T12:17:56;8.60;;;7.77;;
34098;SDS011;20374;49.474;10.944;2022-10-31T12:34:10;8.25;;;6.68;;
34098;SDS011;20374;49.474;10.944;2022-10-31T12:36:56;8.50;;;7.63;;
34098;SDS011;20374;49.474;10.944;2022-10-31T12:39:31;9.70;;;6.75;;
34098;SDS011;20374;49.474;10.944;2022-10-31T12:44:48;7.50;;;6.83;;
34098;SDS011;20374;49.474;10.944;2022-10-31T12:47:40;7.32;;;6.72;;
34098;SDS011;20374;49.474;10.944;2022-10-31T12:55:41;8.30;;;7.50;;
34098;SDS011;20374;49.474;10.944;2022-10-31T12:58:33;9.13;;;8.10;;
34098;SDS011;20374;49.474;10.944;2022-10-31T13:03:54;9.02;;;8.23;;
34098;SDS011;20374;49.474;10.944;2022-10-31T13:06:30;9.18;;;8.15;;
34098;SDS011;20374;49.474;10.944;2022-10-31T13:09:01;8.55;;;7.10;;
34098;SDS011;20374;49.474;10.944;2022-10-31T13:11:39;8.93;;;8.00;;
34098;SDS011;20374;49.474;10.944;2022-10-31T13:14:32;7.95;;;7.18;;
34098;SDS011;20374;49.474;10.944;2022-10-31T13:23:37;8.80;;;8.00;;
34098;SDS011;20374;49.474;10.944;2022-10-31T13:25:54;8.87;;;7.93;;
34098;SDS011;20374;49.474;10.944;2022-10-31T13:30:59;10.57;;;7.78;;
34098;SDS011;20374;49.474;10.944;2022-10-31T13:38:37;8.43;;;7.72;;
34098;SDS011;20374;49.474;10.944;2022-10-31T13:43:55;8.82;;;8.05;;
34098;SDS011;20374;49.474;10.944;2022-10-31T13:48:58;8.53;;;7.13;;
34098;SDS011;20374;49.474;10.944;2022-10-31T13:51:32;8.82;;;7.70;;
34098;SDS011;20374;49.474;10.944;2022-10-31T13:54:01;9.20;;;8.30;;
34098;SDS011;20374;49.474;10.944;2022-10-31T13:56:47;8.90;;;8.20;;
34098;SDS011;20374;49.474;10.944;2022-10-31T13:59:17;8.30;;;7.43;;
34098;SDS011;20374;49.474;10.944;2022-10-31T14:01:50;8.40;;;7.53;;
34098;SDS011;20374;49.474;10.944;2022-10-31T14:06:51;8.40;;;7.70;;
34098;SDS011;20374;49.474;10.944;2022-10-31T14:12:06;8.57;;;7.68;;
34098;SDS011;20374;49.474;10.944;2022-10-31T14:14:41;7.40;;;6.70;;
34098;SDS011;20374;49.474;10.944;2022-10-31T14:17:19;9.30;;;7.78;;
34098;SDS011;20374;49.474;10.944;2022-10-31T14:20:00;8.90;;;8.00;;
34098;SDS011;20374;49.474;10.944;2022-10-31T14:22:37;7.97;;;7.10;;
34098;SDS011;20374;49.474;10.944;2022-10-31T14:28:30;8.27;;;7.47;;
34098;SDS011;20374;49.474;10.944;2022-10-31T14:30:58;9.00;;;7.70;;
34098;SDS011;20374;49.474;10.944;2022-10-31T14:33:26;7.90;;;7.20;;
34098;SDS011;20374;49.474;10.944;2022-10-31T14:46:45;10.73;;;7.28;;
34098;SDS011;20374;49.474;10.944;2022-10-31T14:49:39;8.23;;;7.40;;
34098;SDS011;20374;49.474;10.944;2022-10-31T14:52:27;8.85;;;7.80;;
34098;SDS011;20374;49.474;10.944;2022-10-31T14:54:54;7.03;;;6.27;;
34098;SDS011;20374;49.474;10.944;2022-10-31T14:57:29;9.40;;;7.22;;
34098;SDS011;20374;49.474;10.944;2022-10-31T15:00:03;8.55;;;7.55;;
34098;SDS011;20374;49.474;10.944;2022-10-31T15:03:18;9.43;;;7.20;;
34098;SDS011;20374;49.474;10.944;2022-10-31T15:05:33;10.77;;;8.02;;
34098;SDS011;20374;49.474;10.944;2022-10-31T15:08:12;7.70;;;6.93;;
34098;SDS011;20374;49.474;10.944;2022-10-31T15:10:50;8.15;;;6.80;;
34098;SDS011;20374;49.474;10.944;2022-10-31T15:13:18;8.68;;;7.57;;
34098;SDS011;20374;49.474;10.944;2022-10-31T15:15:46;8.40;;;7.60;;
34098;SDS011;20374;49.474;10.944;2022-10-31T15:18:16;7.83;;;6.70;;
34098;SDS011;20374;49.474;10.944;2022-10-31T15:20:46;10.07;;;8.10;;
34098;SDS011;20374;49.474;10.944;2022-10-31T15:23:15;8.73;;;7.25;;
34098;SDS011;20374;49.474;10.944;2022-10-31T15:25:58;10.27;;;6.88;;
34098;SDS011;20374;49.474;10.944;2022-10-31T15:28:25;7.53;;;6.82;;
34098;SDS011;20374;49.474;10.944;2022-10-31T15:30:53;8.30;;;7.43;;
34098;SDS011;20374;49.474;10.944;2022-10-31T15:33:38;7.97;;;6.65;;
34098;SDS011;20374;49.474;10.944;2022-10-31T15:36:06;8.48;;;7.65;;
34098;SDS011;20374;49.474;10.944;2022-10-31T15:38:43;7.72;;;6.93;;
34098;SDS011;20374;49.474;10.944;2022-10-31T15:43:58;7.38;;;6.53;;
34098;SDS011;20374;49.474;10.944;2022-10-31T15:46:28;8.65;;;6.53;;
34098;SDS011;20374;49.474;10.944;2022-10-31T15:48:54;10.55;;;7.32;;
34098;SDS011;20374;49.474;10.944;2022-10-31T15:51:30;9.18;;;6.05;;
34098;SDS011;20374;49.474;10.944;2022-10-31T15:53:58;8.17;;;7.27;;
34098;SDS011;20374;49.474;10.944;2022-10-31T15:56:27;7.57;;;6.55;;
34098;SDS011;20374;49.474;10.944;2022-10-31T15:58:55;8.80;;;7.10;;
34098;SDS011;20374;49.474;10.944;2022-10-31T16:01:24;8.18;;;7.38;;
34098;SDS011;20374;49.474;10.944;2022-10-31T16:03:56;8.25;;;6.53;;
34098;SDS011;20374;49.474;10.944;2022-10-31T16:06:30;8.00;;;7.30;;
34098;SDS011;20374;49.474;10.944;2022-10-31T16:08:57;8.02;;;7.05;;
34098;SDS011;20374;49.474;10.944;2022-10-31T16:11:24;8.55;;;7.47;;
34098;SDS011;20374;49.474;10.944;2022-10-31T16:16:29;11.63;;;10.00;;
34098;SDS011;20374;49.474;10.944;2022-10-31T16:18:57;9.02;;;8.20;;
34098;SDS011;20374;49.474;10.944;2022-10-31T16:21:26;8.82;;;8.02;;
34098;SDS011;20374;49.474;10.944;2022-10-31T16:24:00;8.95;;;8.15;;
34098;SDS011;20374;49.474;10.944;2022-10-31T16:26:28;12.20;;;10.77;;
34098;SDS011;20374;49.474;10.944;2022-10-31T16:28:55;9.50;;;8.48;;
34098;SDS011;20374;49.474;10.944;2022-10-31T16:31:30;9.70;;;8.85;;
34098;SDS011;20374;49.474;10.944;2022-10-31T16:34:22;10.27;;;9.10;;
34098;SDS011;20374;49.474;10.944;2022-10-31T16:36:47;8.45;;;7.07;;
34098;SDS011;20374;49.474;10.944;2022-10-31T16:39:13;10.20;;;9.20;;
34098;SDS011;20374;49.474;10.944;2022-10-31T16:41:40;10.18;;;9.02;;
34098;SDS011;20374;49.474;10.944;2022-10-31T16:44:24;9.77;;;8.80;;
34098;SDS011;20374;49.474;10.944;2022-10-31T16:47:07;9.13;;;8.30;;
34098;SDS011;20374;49.474;10.944;2022-10-31T16:49:41;10.23;;;8.15;;
34098;SDS011;20374;49.474;10.944;2022-10-31T16:52:07;10.03;;;8.60;;
34098;SDS011;20374;49.474;10.944;2022-10-31T16:54:33;9.70;;;8.00;;
34098;SDS011;20374;49.474;10.944;2022-10-31T16:56:59;10.38;;;9.40;;
34098;SDS011;20374;49.474;10.944;2022-10-31T16:59:26;10.35;;;8.93;;
34098;SDS011;20374;49.474;10.944;2022-10-31T17:01:52;8.03;;;7.23;;
34098;SDS011;20374;49.474;10.944;2022-10-31T17:04:19;8.00;;;7.22;;
34098;SDS011;20374;49.474;10.944;2022-10-31T17:06:45;8.30;;;6.43;;
34098;SDS011;20374;49.474;10.944;2022-10-31T17:09:10;8.55;;;6.82;;